South Coast: Past 24 Hour Conditions

 

Winterland

01:30 PM NDT 17 April 2014
This table is a summary of hourly weather conditions for the past 24 hours.
Date / Time
(NDT)
Wind(knots) Conditions Visibility(km) Pressure(kPa) Air tempC) Relative humidity(%) Dew pointC) Wind Chill
17 April 2014
13:30 WNW 20 Sunny 15 103.6 3 51 -7 *
12:30 WNW 17 Light Snow 15 103.6 3 56 -5 *
11:30 WNW 13 gust 18 Sunny 15 103.5 2 57 -6 *
10:30 WNW 11 Sunny 15 103.5 2 58 -6 *
9:30 NW 10 gust 15 Sunny 15 103.4 0 63 -6 -5
8:30 NNW 15 Sunny 15 103.3 -1 65 -6 -7
7:30 NW 9 Mainly Sunny 15 103.2 -1 73 -5 -6
6:30 NW 10 Sunny 15 103.1 -2 76 -5 -7
5:30 NW 8 Clear 15 102.9 -2 78 -5 -6
4:30 NW 7 Clear 15 102.7 -1 74 -5 -6
3:30 NW 12 gust 17 Clear 15 102.6 -1 69 -6 -6
2:30 WNW 14 gust 19 Clear 15 102.5 -1 67 -6 -7
1:30 NW 17 gust 24 Light Snow 15 102.3 1 64 -5 *
0:30 WNW 12 Cloudy 13 102.2 1 95 0 *
16 April 2014
23:30 WNW 20 gust 25 Light Precipitation 15 102.0 1 94 0 *
22:30 W 18 gust 26 Light Precipitation 15 101.9 2 95 1 *
21:30 W 21 gust 26 Light Drizzle 15 101.8 4 92 3 *
20:30 WSW 21 gust 30 Cloudy 6 101.6 8 99 8 *
19:30 SW 22 gust 34 Light Freezing Rain 3 101.5 9 99 9 *
18:30 SW 26 gust 38 Light Drizzle 15 101.5 11 89 9 *
17:30 SW 26 gust 38 Light Drizzle 15 101.5 12 81 9 *
16:30 SW 25 gust 40 Light Drizzle 15 101.5 13 79 9 *
15:30 SSW 25 gust 39 Light Drizzle 15 101.6 13 79 9 *
14:30 N/A Cloudy 15 101.6 14 74 10 *
13:30 SW 19 gust 27 Cloudy 15 101.7 15 72 10 *
 
Map of Atlantic - Newfoundland marine weather areas Southwestern Grand Banks - 44138 Banquereau - 44139 Tail of the Bank - 44140 Nickerson Bank - 44251 Northeast Burgeo Bank - 44255 Blanc-Sablon Airport Cap Whittle Chevery Natashquan Airport Heath Point Miscou Island Grand Étang Ingonish Beach North Mountain St.Paul Island J.A. Douglas McCurdy Sydney Airport Charlottetown Airport East Point North Cape Argentia Bonavista Burgeo Cape Race Corner Brook Daniel's Harbour Englee Ferolle Point La Scie Port aux Basques Rocky Harbour Sagona Island St. Anthony Airport St. John's Int'l Airport St. Lawrence Stephenville Airport Twillingate Winterland Wreckhouse Cartwright Airport Mary's Harbour Grates Cove Pool's Island Marticot Island Long Pond Îles de la Madeleine Airport
Legend: buoyBuoy land stationLand Station